Airfield :
LOGIN :

Register | Disclaimer

   EN    FR    IT 

 










Legend :    VFR   Marginal VFR   IFR   Intensive IFR   Very Intensive IFR
Visi :
Ceiling :
>= 8 km
>= 3000ft
5 to 8 km
1000 to 3000 ft
1500m to 5 km
500 to 1000 ft
800 to 1500m
200 to 500 ft
< 800m
< 200 ft
Symbols :   Thunderstorms  Fog  Heavy snow  Heavy precipitations  Wind > 20 kt
SIGMETs :     Misc.  Thunderstorms  Icing  Turbulence  Mountain Waves  Volcanic Ashes







- Airport Elevation : 1363 ft


ETIC - Grafenwohr Army Air Field

CURRENT METAR :
  • 251158Z AUTO 24012G17KT 9999 BKN060 BKN180 14/01 A2970 RMK AO2 SLP066 55001

EXPIRED METARs :
  • 251058Z AUTO 23011G17KT 210V270 9999 BKN050 BKN065 14/01 A2970 RMK AO2 SLP066
  • 250958Z AUTO 23010G18KT 200V260 9999 SCT050 SCT160 BKN190 13/01 A2970 RMK AO2 SLP066

TAF AMD TAF ETIC
Valid from the 25 at 12:00 until the 26 at 12:00 UTC


251209Z 2512/2612 27012G18KT 9999 FEW025 BKN050 QNH2970INS
BECMG 2517/2518 33009KT 8000 -SHRA BKN020 OVC035 620809 621701 QNH2973INS
BECMG 2523/2524 VRB06KT 5000 -RA BR BKN010 OVC020 620509 621404 QNH2974INS
TEMPO 2601/2605 BKN007
BECMG 2607/2608 VRB06KT 8000 -RA BKN015 OVC020 620509 621404 QNH2981INS TX14/2514Z TNM02/2604Z
No reported NOTAMs for that airfield.



MET'MAP, your aeronautical weather chart ! - Copyright ORBIFLY December 2007 - Disclaimer

ORBIFLY MET'MAP TEAM :

Programming & Development : Alexandra Zaïnal
Concept & Development : Baudouin d'Aumeries
Co-Development & Prog : Marc-Olivier Méhu
Technical & hardware support : Manuel Goepfert

Contact : metmap@orbifly.com




SOURCES & CREDITS :

   NOAA